Reunion, Florida
Current Conditions -  °F | °C
As of 9:50 PM on Friday 21 Nov 2014 (Local Time) from KISM Reporting Station
Overcast Overcast  
Wind Chill: 66°   Ceiling: 9000
Heat Index: 66°   Visibility: 10mi
Dew Point: 59°   Wind: 5mph
Humidity: 78%   Direction: 40°NE
Pressure: 30.27"   Gusts: NA
Location:  28.295°N, 81.6129°W
Report Text: KISM 220250Z 04004KT 10SM OVC090 19/15 A3027 RMK LAST
Loading
Personal Weather Stations






























Interactive Weather Map New forecast layout! Learn more

10-Day Weather Forecast

Advertisements
Track Severe Weather on mobile